Daytona Beach, FL (32117)

11:15 AM EDT on July 05, 2015 (GMT -0400)
Holly Hill | | Change Station
CLOSE
Current Station
Personal Weather Station
Location: Daytona Beach, FL
Elevation: 12 ft
Nearby Weather Stations

Elev 12 ft 29.23 °N, 81.05 °W | Updated 6 minutes ago

Partly Cloudy
Partly Cloudy
88.0 °F
Feels Like 104 °F
N
2.7
Wind Variable Wind from WSW

Today
High -- | Low -- °F
--% Chance of Precip.
Yesterday
High -- | Low -- °F
Precip. -- in
6:30 AM 8:27 PM
Waning Gibbous, 84% visible
Pressure 30.18 in
Visibility 9.0 miles
Clouds Scattered Clouds 2400 ft
Scattered Clouds 18000 ft
Mostly Cloudy 25000 ft
Heat Index 104 °F
Dew Point 80 °F
Humidity 77%
Rainfall 0.00 in
Snow Depth Not available.
UV 6 out of 12
Pollen 1.80 out of 12
Air Quality Not available.
Flu Activity Not available.
METAR KDAB 051453Z VRB03KT 9SM SCT024 SCT180 BKN250 30/23 A3018 RMK AO2 SLP220 T03000228 50004

More Conditions Fewer Conditions

Pressure 30.18 in
Visibility 9.0 miles
Clouds Scattered Clouds 2400 ft
Scattered Clouds 18000 ft
Mostly Cloudy 25000 ft
Heat Index 104 °F
Dew Point 80 °F
Humidity 77%
Rainfall 0.00 in
Snow Depth Not available.
UV 6 out of 12
Pollen 1.80 out of 12
Air Quality Not available.
Flu Activity Not available.
METAR KDAB 051453Z VRB03KT 9SM SCT024 SCT180 BKN250 30/23 A3018 RMK AO2 SLP220 T03000228 50004

More Conditions Fewer Conditions

Nowcast | as of 9:40 am EDT on July 5, 2015

Scattered showers and storms developing Treasure Coast to Okeechobee Some mid level support will combine with strong surface heating and the developing East Coast sea breeze boundary to generate scattered showers and storms earlier than previous days...between the Treasure Coast and Okeechobee...from mid morning through early afternoon. The primary threats will be dangerous lightning strikes and heavy rain as the cells will be slow moving...generally toward the north at 5 to 10 mph. Localized flooding of low lying and poor drainage areas will be possible along or just inland from the Treasure Coast of Martin... Saint Lucie and Indian River counties. Additional details...including graphics are available online at: http://www.Srh.NOAA.Gov/mlb/blog.Php

×

10-Day Weather Forecast

×

Almanac

Astronomy

Jul. 05, 2015 Rise Set
Actual Time
Civil Twilight
Nautical Twilight
Astronomical Twilight
Moon
Length of Visible Light
Length of Day
Tomorrow will be .
, % of the Moon is Illuminated

Today's Extremes

State Highs State Lows

Community

WunderPhotos

Upload Photos

1,835,282 photos uploaded!

WunderBlogs® & News

Nearby

Air Quality

  Air Quality AQ Index Pollutant
Not available.

Snow Depth

Station Depth Elevation

Earthquake Activity

City Distance Mag. Time & Date
Minimum magnitude displayed is 2.5.

Coastal Water Temperatures

Place Temperature

Stations

Nearby Weather Stations

Station Location Temp. Windchill Dew Point Humidity Wind Precip. Elev Updated Type